createdAt,value
2022-11-03T00:01:51.131Z,5.30
2022-11-03T00:04:20.538Z,4.65
2022-11-03T00:06:50.796Z,3.97
2022-11-03T00:09:19.774Z,4.50
2022-11-03T00:11:48.509Z,3.25
2022-11-03T00:14:15.796Z,3.72
2022-11-03T00:16:43.965Z,3.50
2022-11-03T00:19:12.027Z,4.40
2022-11-03T00:21:39.593Z,3.63
2022-11-03T00:24:07.206Z,3.83
2022-11-03T00:26:36.579Z,3.33
2022-11-03T00:29:12.569Z,3.72
2022-11-03T00:31:41.962Z,2.95
2022-11-03T00:34:10.108Z,3.70
2022-11-03T00:36:40.186Z,2.92
2022-11-03T00:39:09.414Z,3.88
2022-11-03T00:41:37.710Z,2.95
2022-11-03T00:44:05.534Z,3.28
2022-11-03T00:46:36.034Z,3.55
2022-11-03T00:49:05.533Z,4.70
2022-11-03T00:51:35.043Z,2.85
2022-11-03T00:54:04.586Z,3.55
2022-11-03T00:56:34.577Z,3.50
2022-11-03T00:59:03.328Z,3.35
2022-11-03T01:01:40.553Z,2.35
2022-11-03T01:04:30.125Z,2.80
2022-11-03T01:07:00.011Z,2.47
2022-11-03T01:09:28.684Z,2.65
2022-11-03T01:12:00.196Z,2.30
2022-11-03T01:14:46.290Z,2.15
2022-11-03T01:17:21.770Z,2.80
2022-11-03T01:19:49.388Z,2.00
2022-11-03T01:22:17.647Z,1.85
2022-11-03T01:24:45.714Z,1.58
2022-11-03T01:27:16.052Z,1.52
2022-11-03T01:29:43.729Z,1.50
2022-11-03T01:32:11.975Z,1.83
2022-11-03T01:34:39.465Z,2.15
2022-11-03T01:37:07.225Z,1.80
2022-11-03T01:39:34.759Z,1.67
2022-11-03T01:42:02.502Z,1.67
2022-11-03T01:44:37.421Z,1.38
2022-11-03T01:47:15.514Z,1.33
2022-11-03T01:50:03.172Z,1.20
2022-11-03T01:52:36.209Z,1.38
2022-11-03T01:55:09.457Z,1.60
2022-11-03T01:57:43.379Z,0.93
2022-11-03T02:00:11.685Z,1.23
2022-11-03T02:02:38.942Z,1.20
2022-11-03T02:05:07.649Z,0.93
2022-11-03T02:07:50.161Z,0.80
2022-11-03T02:10:18.215Z,0.82
2022-11-03T02:12:45.579Z,0.90
2022-11-03T02:15:16.730Z,1.02
2022-11-03T02:17:46.542Z,0.90
2022-11-03T02:20:27.077Z,0.95
2022-11-03T02:23:32.946Z,1.10
2022-11-03T02:26:01.053Z,1.05
2022-11-03T02:28:31.496Z,0.70
2022-11-03T02:31:15.315Z,0.70
2022-11-03T02:34:05.671Z,0.82
2022-11-03T02:36:38.656Z,0.60
2022-11-03T02:39:19.655Z,1.25
2022-11-03T02:41:48.593Z,1.67
2022-11-03T02:44:19.032Z,0.88
2022-11-03T02:46:50.533Z,1.00
2022-11-03T02:49:18.442Z,0.95
2022-11-03T02:51:45.662Z,0.70
2022-11-03T02:54:30.045Z,0.70
2022-11-03T02:57:03.382Z,1.00
2022-11-03T02:59:48.393Z,0.95
2022-11-03T03:02:21.853Z,1.40
2022-11-03T03:04:55.477Z,1.60
2022-11-03T03:07:28.776Z,1.42
2022-11-03T03:10:04.891Z,1.95
2022-11-03T03:12:35.058Z,1.73
2022-11-03T03:15:04.155Z,1.27
2022-11-03T03:17:41.920Z,1.33
2022-11-03T03:20:20.895Z,1.52
2022-11-03T03:22:52.015Z,2.28
2022-11-03T03:25:27.238Z,1.67
2022-11-03T03:28:01.062Z,1.95
2022-11-03T03:30:30.663Z,2.45
2022-11-03T03:32:59.891Z,2.17
2022-11-03T03:35:33.290Z,2.35
2022-11-03T03:38:26.086Z,2.88
2022-11-03T03:40:57.572Z,2.53
2022-11-03T03:43:27.143Z,2.30
2022-11-03T03:45:59.812Z,2.83
2022-11-03T03:48:27.157Z,2.20
2022-11-03T03:50:54.930Z,3.50
2022-11-03T03:53:22.211Z,3.42
2022-11-03T03:55:51.634Z,3.08
2022-11-03T03:58:18.954Z,3.30
2022-11-03T04:00:46.356Z,2.45
2022-11-03T04:03:17.754Z,2.72
2022-11-03T04:05:45.803Z,2.95
2022-11-03T04:08:14.700Z,2.58
2022-11-03T04:11:01.948Z,2.20
2022-11-03T04:13:47.853Z,2.78
2022-11-03T04:16:47.663Z,2.63
2022-11-03T04:19:33.771Z,3.50
2022-11-03T04:22:16.404Z,2.43
2022-11-03T04:24:45.941Z,2.45
2022-11-03T04:27:34.278Z,3.25
2022-11-03T04:30:19.430Z,2.97
2022-11-03T04:32:48.637Z,2.50
2022-11-03T04:35:17.515Z,2.58
2022-11-03T04:37:48.859Z,2.20
2022-11-03T04:40:17.219Z,2.20
2022-11-03T04:42:45.204Z,2.47
2022-11-03T04:45:45.540Z,2.53
2022-11-03T04:48:23.615Z,2.97
2022-11-03T04:50:58.398Z,2.40
2022-11-03T04:53:30.500Z,2.30
2022-11-03T04:56:01.517Z,3.35
2022-11-03T04:58:35.778Z,3.23
2022-11-03T05:01:04.878Z,2.00
2022-11-03T05:03:37.552Z,2.40
2022-11-03T05:06:27.022Z,2.08
2022-11-03T05:09:01.813Z,1.98
2022-11-03T05:11:36.436Z,2.05
2022-11-03T05:14:27.822Z,1.98
2022-11-03T05:16:56.448Z,2.15
2022-11-03T05:19:31.910Z,2.63
2022-11-03T05:22:01.913Z,2.42
2022-11-03T05:24:31.101Z,2.90
2022-11-03T05:26:59.278Z,2.42
2022-11-03T05:29:29.312Z,1.88
2022-11-03T05:31:57.267Z,2.53
2022-11-03T05:34:30.496Z,2.72
2022-11-03T05:37:06.534Z,1.95
2022-11-03T05:39:54.242Z,2.88
2022-11-03T05:42:28.047Z,2.28
2022-11-03T05:44:56.089Z,2.08
2022-11-03T05:47:30.047Z,2.78
2022-11-03T05:50:07.908Z,2.17
2022-11-03T05:52:35.230Z,2.33
2022-11-03T05:55:03.468Z,2.58
2022-11-03T05:57:33.432Z,3.10
2022-11-03T06:00:00.753Z,3.28
2022-11-03T06:02:39.339Z,2.63
2022-11-03T06:05:20.221Z,2.45
2022-11-03T06:07:49.226Z,2.42
2022-11-03T06:10:32.353Z,2.45
2022-11-03T06:13:19.615Z,2.33
2022-11-03T06:15:48.343Z,2.22
2022-11-03T06:18:25.103Z,2.40
2022-11-03T06:20:56.659Z,3.67
2022-11-03T06:23:25.148Z,4.35
2022-11-03T06:25:56.895Z,2.63
2022-11-03T06:28:34.832Z,2.83
2022-11-03T06:31:02.303Z,2.50
2022-11-03T06:33:34.705Z,3.55
2022-11-03T06:36:11.631Z,4.70
2022-11-03T06:38:39.491Z,3.20
2022-11-03T06:41:20.850Z,3.08
2022-11-03T06:43:48.167Z,2.75
2022-11-03T06:46:26.377Z,2.22
2022-11-03T06:48:57.926Z,1.40
2022-11-03T06:51:28.189Z,1.40
2022-11-03T06:53:59.082Z,23.05
2022-11-03T06:56:30.038Z,1.83
2022-11-03T06:58:58.422Z,1.90
2022-11-03T07:01:30.527Z,1.92
2022-11-03T07:04:03.420Z,2.03
2022-11-03T07:06:35.276Z,2.15
2022-11-03T07:09:13.364Z,6.10
2022-11-03T07:11:50.054Z,8.82
2022-11-03T07:14:21.304Z,6.72
2022-11-03T07:16:57.896Z,3.42
2022-11-03T07:19:27.540Z,3.03
2022-11-03T07:22:00.670Z,3.05
2022-11-03T07:24:34.812Z,3.08
2022-11-03T07:27:36.530Z,3.80
2022-11-03T07:30:25.664Z,4.32
2022-11-03T07:32:55.184Z,4.85
2022-11-03T07:36:00.286Z,3.55
2022-11-03T07:38:24.484Z,5.88
2022-11-03T07:40:53.065Z,5.38
2022-11-03T07:43:28.412Z,35.05
2022-11-03T07:45:57.595Z,2.65
2022-11-03T07:48:33.959Z,2.42
2022-11-03T07:51:15.905Z,2.95
2022-11-03T07:53:48.752Z,3.90
2022-11-03T07:56:21.196Z,3.35
2022-11-03T07:58:53.495Z,2.67
2022-11-03T08:01:32.912Z,4.22
2022-11-03T08:04:08.309Z,2.78
2022-11-03T08:06:35.743Z,2.85
2022-11-03T08:09:03.464Z,2.85
2022-11-03T08:11:30.782Z,2.97
2022-11-03T08:13:58.095Z,3.30
2022-11-03T08:16:25.532Z,2.90
2022-11-03T08:18:52.783Z,3.03
2022-11-03T08:21:20.076Z,2.50
2022-11-03T08:23:47.959Z,3.50
2022-11-03T08:26:16.204Z,3.53
2022-11-03T08:28:43.448Z,3.70
2022-11-03T08:31:12.894Z,3.42
2022-11-03T08:33:41.007Z,3.05
2022-11-03T08:36:09.599Z,3.08
2022-11-03T08:38:37.593Z,3.00
2022-11-03T08:41:05.436Z,3.13
2022-11-03T08:43:32.834Z,3.25
2022-11-03T08:46:06.817Z,2.50
2022-11-03T08:48:40.517Z,2.50
2022-11-03T08:51:10.347Z,2.70
2022-11-03T08:53:38.604Z,2.63
2022-11-03T08:56:10.362Z,3.58
2022-11-03T08:58:39.908Z,2.92
2022-11-03T09:01:08.073Z,2.92
2022-11-03T09:03:35.636Z,3.33
2022-11-03T09:06:02.961Z,3.47
2022-11-03T09:11:17.683Z,3.33
2022-11-03T09:13:44.999Z,3.15
2022-11-03T09:16:12.353Z,3.80
2022-11-03T09:18:39.714Z,3.50
2022-11-03T09:21:07.282Z,4.15
2022-11-03T09:23:34.527Z,5.45
2022-11-03T09:26:01.789Z,4.55
2022-11-03T09:28:29.021Z,5.15
2022-11-03T09:30:56.274Z,4.35
2022-11-03T09:33:23.585Z,4.10
2022-11-03T09:35:50.920Z,4.13
2022-11-03T09:38:18.169Z,3.85
2022-11-03T09:40:45.610Z,3.22
2022-11-03T09:43:12.996Z,3.30
2022-11-03T09:45:40.367Z,3.58
2022-11-03T09:48:11.720Z,2.63
2022-11-03T09:50:39.856Z,2.58
2022-11-03T09:53:12.513Z,2.53
2022-11-03T09:55:40.257Z,3.20
2022-11-03T09:58:14.951Z,3.53
2022-11-03T10:00:42.748Z,4.03
2022-11-03T10:03:14.564Z,3.25
2022-11-03T10:05:43.921Z,3.42
2022-11-03T10:08:22.881Z,3.03
2022-11-03T10:10:51.688Z,3.47
2022-11-03T10:13:45.426Z,3.00
2022-11-03T10:16:17.194Z,3.55
2022-11-03T10:18:45.048Z,3.65
2022-11-03T10:21:19.134Z,3.92
2022-11-03T10:23:46.877Z,4.18
2022-11-03T10:26:19.718Z,4.60
2022-11-03T10:29:01.697Z,4.70
2022-11-03T10:31:40.093Z,3.85
2022-11-03T10:34:41.128Z,5.45
2022-11-03T10:37:13.429Z,3.28
2022-11-03T10:39:40.760Z,3.38
2022-11-03T10:42:21.823Z,3.33
2022-11-03T10:44:53.638Z,3.60
2022-11-03T10:48:07.028Z,3.20
2022-11-03T10:50:34.375Z,3.90
2022-11-03T10:53:03.873Z,3.13
2022-11-03T10:55:31.787Z,3.30
2022-11-03T10:57:59.210Z,3.58
2022-11-03T11:00:26.653Z,3.42
2022-11-03T11:03:00.799Z,2.70
2022-11-03T11:05:28.442Z,3.22
2022-11-03T11:07:56.146Z,3.35
2022-11-03T11:10:25.097Z,2.65
2022-11-03T11:13:13.736Z,3.35
2022-11-03T11:15:46.406Z,2.85
2022-11-03T11:18:46.062Z,2.92
2022-11-03T11:21:17.617Z,2.90
2022-11-03T11:23:46.735Z,2.60
2022-11-03T11:26:15.286Z,2.97
2022-11-03T11:28:44.832Z,2.92
2022-11-03T11:31:27.140Z,3.38
2022-11-03T11:34:14.434Z,3.42
2022-11-03T11:36:43.851Z,3.25
2022-11-03T11:39:20.237Z,2.80
2022-11-03T11:42:20.286Z,3.35
2022-11-03T11:44:50.650Z,3.20
2022-11-03T11:47:41.046Z,3.25
2022-11-03T11:50:11.048Z,3.58
2022-11-03T11:52:42.591Z,3.92
2022-11-03T11:55:43.900Z,3.45
2022-11-03T11:58:37.911Z,4.22
2022-11-03T12:01:20.362Z,4.60
2022-11-03T12:03:49.148Z,4.63
2022-11-03T12:06:16.607Z,5.15
2022-11-03T12:08:44.318Z,4.78
2022-11-03T12:11:12.760Z,4.18
2022-11-03T12:13:47.642Z,4.28
2022-11-03T12:16:50.835Z,4.35
2022-11-03T12:19:44.057Z,4.75
2022-11-03T12:22:26.322Z,5.68
2022-11-03T12:25:05.042Z,5.40
2022-11-03T12:27:33.993Z,4.95
2022-11-03T12:30:04.130Z,5.45
2022-11-03T12:32:34.840Z,5.10
2022-11-03T12:35:04.188Z,5.43
2022-11-03T12:37:31.472Z,6.60
2022-11-03T12:39:58.728Z,5.28
2022-11-03T12:42:26.117Z,5.97
2022-11-03T12:44:53.665Z,5.85
2022-11-03T12:47:21.246Z,5.50
2022-11-03T12:49:48.963Z,6.00
2022-11-03T12:52:16.318Z,6.40
2022-11-03T12:54:43.588Z,6.55
2022-11-03T12:57:10.840Z,5.60
2022-11-03T12:59:38.083Z,6.43
2022-11-03T13:02:05.902Z,5.38
2022-11-03T13:04:33.324Z,6.63
2022-11-03T13:07:00.828Z,5.88
2022-11-03T13:09:28.061Z,5.97
2022-11-03T13:12:14.046Z,5.47
2022-11-03T13:14:45.867Z,5.25
2022-11-03T13:17:16.007Z,4.88
2022-11-03T13:19:43.336Z,5.20
2022-11-03T13:22:10.662Z,5.00
2022-11-03T13:24:38.523Z,5.32
2022-11-03T13:27:05.768Z,5.75
2022-11-03T13:29:35.750Z,5.22
2022-11-03T13:32:04.129Z,5.07
2022-11-03T13:34:32.044Z,4.95
2022-11-03T13:36:59.476Z,4.30
2022-11-03T13:39:26.958Z,3.75
2022-11-03T13:41:54.181Z,3.40
2022-11-03T13:44:21.483Z,4.15
2022-11-03T13:46:48.994Z,4.75
2022-11-03T13:49:59.265Z,3.63
2022-11-03T13:52:03.789Z,3.28
2022-11-03T14:00:07.994Z,4.03
2022-11-03T14:05:22.468Z,4.07
2022-11-03T14:07:49.934Z,3.42
2022-11-03T14:10:17.315Z,4.53
2022-11-03T14:12:44.585Z,3.83
2022-11-03T14:15:13.069Z,3.88
2022-11-03T14:17:40.592Z,3.60
2022-11-03T14:20:11.052Z,4.70
2022-11-03T14:22:39.319Z,4.35
2022-11-03T14:25:07.970Z,4.30
2022-11-03T14:27:35.461Z,3.83
2022-11-03T14:30:03.865Z,3.80
2022-11-03T14:32:31.222Z,3.78
2022-11-03T14:34:58.999Z,3.88
2022-11-03T14:37:26.521Z,3.40
2022-11-03T14:39:53.958Z,3.78
2022-11-03T14:42:21.439Z,3.72
2022-11-03T14:44:48.908Z,3.17
2022-11-03T14:47:21.854Z,3.30
2022-11-03T14:49:49.664Z,2.70
2022-11-03T14:52:17.685Z,2.55
2022-11-03T14:54:45.123Z,2.08
2022-11-03T14:57:12.405Z,1.63
2022-11-03T14:59:39.732Z,2.00
2022-11-03T15:02:07.505Z,2.40
2022-11-03T15:04:34.874Z,3.17
2022-11-03T15:07:02.303Z,2.90
2022-11-03T15:09:29.658Z,2.17
2022-11-03T15:11:56.933Z,2.13
2022-11-03T15:14:24.333Z,2.83
2022-11-03T15:16:51.640Z,1.92
2022-11-03T15:19:18.952Z,2.10
2022-11-03T15:21:46.207Z,2.40
2022-11-03T15:27:00.745Z,2.15
2022-11-03T15:29:28.016Z,2.65
2022-11-03T15:31:55.339Z,2.25
2022-11-03T15:34:22.632Z,1.90
2022-11-03T15:36:49.870Z,2.78
2022-11-03T15:39:17.957Z,2.13
2022-11-03T15:41:45.221Z,2.55
2022-11-03T15:44:12.549Z,1.92
2022-11-03T15:46:39.812Z,1.65
2022-11-03T15:49:07.260Z,1.90
2022-11-03T15:51:34.501Z,2.50
2022-11-03T15:54:02.557Z,2.17
2022-11-03T15:56:30.335Z,2.03
2022-11-03T15:58:57.621Z,1.95
2022-11-03T16:01:25.187Z,1.75
2022-11-03T16:03:52.581Z,2.15
2022-11-03T16:06:26.997Z,1.60
2022-11-03T16:09:07.848Z,2.03
2022-11-03T16:11:35.172Z,2.25
2022-11-03T16:14:02.633Z,2.53
2022-11-03T16:16:29.897Z,1.90
2022-11-03T16:18:57.238Z,1.92
2022-11-03T16:21:25.168Z,2.22
2022-11-03T16:23:52.472Z,2.58
2022-11-03T16:26:22.008Z,2.53
2022-11-03T16:28:49.340Z,2.15
2022-11-03T16:31:16.894Z,2.38
2022-11-03T16:33:44.761Z,1.70
2022-11-03T16:36:12.090Z,2.25
2022-11-03T16:38:39.786Z,2.20
2022-11-03T16:41:07.174Z,2.10
2022-11-03T16:43:34.421Z,2.75
2022-11-03T16:46:01.973Z,2.25
2022-11-03T16:48:29.342Z,2.20
2022-11-03T16:50:58.206Z,3.00
2022-11-03T16:53:25.586Z,3.00
2022-11-03T16:55:52.905Z,2.65
2022-11-03T16:58:20.248Z,2.80
2022-11-03T17:00:48.633Z,2.80
2022-11-03T17:03:16.177Z,2.47
2022-11-03T17:05:43.481Z,2.83
2022-11-03T17:08:31.948Z,2.25
2022-11-03T17:10:58.547Z,3.17
2022-11-03T17:13:25.899Z,2.58
2022-11-03T17:15:53.146Z,3.00
2022-11-03T17:18:20.432Z,2.72
2022-11-03T17:20:47.731Z,3.42
2022-11-03T17:23:15.174Z,3.15
2022-11-03T17:25:42.588Z,3.05
2022-11-03T17:28:11.734Z,3.55
2022-11-03T17:30:39.667Z,3.20
2022-11-03T17:33:09.502Z,3.25
2022-11-03T17:35:40.204Z,4.38
2022-11-03T17:38:15.588Z,4.68
2022-11-03T17:40:47.769Z,4.20
2022-11-03T17:43:19.945Z,3.50
2022-11-03T17:45:47.681Z,4.65
2022-11-03T17:48:14.988Z,3.88
2022-11-03T17:50:46.734Z,3.88
2022-11-03T17:53:22.096Z,3.97
2022-11-03T17:56:23.602Z,5.32
2022-11-03T17:58:46.180Z,4.80
2022-11-03T18:01:22.578Z,4.60
2022-11-03T18:03:49.958Z,5.32
2022-11-03T18:06:19.175Z,5.93
2022-11-03T18:08:50.202Z,6.13
2022-11-03T18:11:48.815Z,5.45
2022-11-03T18:14:16.607Z,5.13
2022-11-03T18:16:44.027Z,5.45
2022-11-03T18:19:16.484Z,5.30
2022-11-03T18:21:44.615Z,5.72
2022-11-03T18:24:18.030Z,5.63
2022-11-03T18:26:45.731Z,6.10
2022-11-03T18:29:13.007Z,5.30
2022-11-03T18:31:44.132Z,6.28
2022-11-03T18:34:24.062Z,6.45
2022-11-03T18:36:53.284Z,7.00
2022-11-03T18:39:28.415Z,6.18
2022-11-03T18:41:55.828Z,7.82
2022-11-03T18:44:30.593Z,6.10
2022-11-03T18:46:58.740Z,7.32
2022-11-03T18:49:27.591Z,6.15
2022-11-03T18:52:03.519Z,5.80
2022-11-03T18:54:34.109Z,6.78
2022-11-03T18:57:02.191Z,7.22
2022-11-03T18:59:32.427Z,6.10
2022-11-03T19:01:59.832Z,6.00
2022-11-03T19:04:27.221Z,7.25
2022-11-03T19:06:54.621Z,6.90
2022-11-03T19:09:26.686Z,8.57
2022-11-03T19:11:57.374Z,8.02
2022-11-03T19:14:32.680Z,9.45
2022-11-03T19:19:52.445Z,9.90
2022-11-03T19:22:21.948Z,10.48
2022-11-03T19:24:49.247Z,9.38
2022-11-03T19:27:23.974Z,8.50
2022-11-03T19:29:51.741Z,8.02
2022-11-03T19:32:44.373Z,8.55
2022-11-03T19:35:21.516Z,7.70
2022-11-03T19:37:51.124Z,7.00
2022-11-03T19:40:19.923Z,7.53
2022-11-03T19:42:49.077Z,8.02
2022-11-03T19:45:19.081Z,7.57
2022-11-03T19:50:45.099Z,7.80
2022-11-03T19:53:22.511Z,7.90
2022-11-03T19:55:50.165Z,9.13
2022-11-03T19:58:20.356Z,8.05
2022-11-03T20:00:49.333Z,9.15
2022-11-03T20:03:17.054Z,7.30
2022-11-03T20:05:49.256Z,7.78
2022-11-03T20:08:19.814Z,7.03
2022-11-03T20:10:48.190Z,7.43
2022-11-03T20:13:20.855Z,7.88
2022-11-03T20:15:49.059Z,8.60
2022-11-03T20:18:16.703Z,7.97
2022-11-03T20:20:45.544Z,8.73
2022-11-03T20:23:24.444Z,9.45
2022-11-03T20:25:52.198Z,9.40
2022-11-03T20:28:22.180Z,10.10
2022-11-03T20:30:49.839Z,11.90
2022-11-03T20:33:19.692Z,12.65
2022-11-03T20:35:48.841Z,11.40
2022-11-03T20:38:19.457Z,11.48
2022-11-03T20:40:47.967Z,12.45
2022-11-03T20:43:31.547Z,11.10
2022-11-03T20:46:00.686Z,10.80
2022-11-03T20:48:28.265Z,9.27
2022-11-03T20:50:55.861Z,9.38
2022-11-03T20:53:24.772Z,11.35
2022-11-03T20:55:53.205Z,13.45
2022-11-03T20:58:20.575Z,15.23
2022-11-03T21:00:48.943Z,14.40
2022-11-03T21:03:57.650Z,13.82
2022-11-03T21:06:18.115Z,13.40
2022-11-03T21:08:47.415Z,13.98
2022-11-03T21:11:29.765Z,11.32
2022-11-03T21:14:04.642Z,11.63
2022-11-03T21:16:50.321Z,10.77
2022-11-03T21:19:41.154Z,9.82
2022-11-03T21:22:45.839Z,9.70
2022-11-03T21:25:14.416Z,10.40
2022-11-03T21:27:42.198Z,10.55
2022-11-03T21:30:14.708Z,9.88
2022-11-03T21:32:42.356Z,11.43
2022-11-03T21:35:14.979Z,11.43
2022-11-03T21:37:42.254Z,12.23
2022-11-03T21:40:10.530Z,11.35
2022-11-03T21:42:56.176Z,11.45
2022-11-03T21:45:23.466Z,10.55
2022-11-03T21:48:13.574Z,10.52
2022-11-03T21:50:42.159Z,10.88
2022-11-03T21:53:10.002Z,9.98
2022-11-03T21:55:37.647Z,9.38
2022-11-03T21:58:05.079Z,10.23
2022-11-03T22:00:33.204Z,10.57
2022-11-03T22:03:01.645Z,11.15
2022-11-03T22:05:29.657Z,9.65
2022-11-03T22:07:57.009Z,9.75
2022-11-03T22:10:24.435Z,10.13
2022-11-03T22:12:51.720Z,9.93
2022-11-03T22:15:37.911Z,10.90
2022-11-03T22:18:06.600Z,9.45
2022-11-03T22:20:54.816Z,8.75
2022-11-03T22:23:40.920Z,9.02
2022-11-03T22:26:33.487Z,9.10
2022-11-03T22:29:19.973Z,8.40
2022-11-03T22:31:52.049Z,8.02
2022-11-03T22:34:37.750Z,7.88
2022-11-03T22:37:05.173Z,7.55
2022-11-03T22:39:55.688Z,7.65
2022-11-03T22:42:41.685Z,8.10
2022-11-03T22:45:28.880Z,7.87
2022-11-03T22:47:57.609Z,6.53
2022-11-03T22:50:25.259Z,5.88
2022-11-03T22:52:52.473Z,6.18
2022-11-03T22:55:19.826Z,5.82
2022-11-03T22:57:47.047Z,6.03
2022-11-03T23:00:16.023Z,5.55
2022-11-03T23:02:43.304Z,6.05
2022-11-03T23:05:10.558Z,5.63
2022-11-03T23:07:41.326Z,5.05
2022-11-03T23:10:09.380Z,6.18
2022-11-03T23:12:36.717Z,6.53
2022-11-03T23:15:22.840Z,7.38
2022-11-03T23:18:08.745Z,8.13
2022-11-03T23:20:56.969Z,9.10
2022-11-03T23:23:43.083Z,11.68
2022-11-03T23:26:10.440Z,14.97
2022-11-03T23:28:37.744Z,15.13
2022-11-03T23:31:05.199Z,9.93
2022-11-03T23:33:32.862Z,10.65
2022-11-03T23:36:05.426Z,9.77
2022-11-03T23:38:33.623Z,9.45
2022-11-03T23:41:04.647Z,9.57
2022-11-03T23:43:31.928Z,9.73
2022-11-03T23:46:17.773Z,9.43
2022-11-03T23:48:48.138Z,8.45
2022-11-03T23:51:23.676Z,9.38
2022-11-03T23:53:51.985Z,9.07
2022-11-03T23:56:43.504Z,8.65
2022-11-03T23:59:12.175Z,10.57
